Time,TemperatureF,DewpointF,PressureIn,WindDirection,WindDirectionDegrees,WindSpeedMPH,WindSpeedGustMPH,Humidity,HourlyPrecipIn,Conditions,Clouds,dailyrainin,SoftwareType,DateUTC
2013-04-03 00:05:00,67.8,51.1,30.09,North,-999,0.0,0.0,55,0.00,,,-99.99,FreeWX 2.05,2013-04-03 04:05:00,
2013-04-03 00:15:00,67.6,51.4,30.09,North,-999,0.0,0.0,56,0.00,,,-99.99,FreeWX 2.05,2013-04-03 04:15:00,
2013-04-03 00:25:00,67.6,51.4,30.09,North,-999,0.0,0.0,56,0.00,,,-99.99,FreeWX 2.05,2013-04-03 04:25:00,
2013-04-03 00:35:00,67.3,51.1,30.09,North,-999,0.0,0.0,56,0.00,,,-99.99,FreeWX 2.05,2013-04-03 04:35:00,
2013-04-03 00:45:00,67.3,51.4,30.09,North,-999,0.0,0.0,57,0.00,,,-99.99,FreeWX 2.05,2013-04-03 04:45:00,
2013-04-03 00:55:00,66.9,51.6,30.09,North,-999,0.0,0.0,58,0.00,,,-99.99,FreeWX 2.05,2013-04-03 04:55:00,
2013-04-03 01:05:00,66.6,51.3,30.09,North,-999,0.0,0.0,58,0.00,,,-99.99,FreeWX 2.05,2013-04-03 05:05:00,
2013-04-03 01:15:00,66.4,51.6,30.09,North,-999,0.0,0.0,59,0.00,,,-99.99,FreeWX 2.05,2013-04-03 05:15:00,
2013-04-03 01:25:00,66.2,52.0,30.09,North,-999,0.0,0.0,60,0.00,,,-99.99,FreeWX 2.05,2013-04-03 05:25:00,
2013-04-03 01:35:00,66.0,51.8,30.09,North,-999,0.0,0.0,60,0.00,,,-99.99,FreeWX 2.05,2013-04-03 05:35:00,
2013-04-03 01:45:00,65.8,52.0,30.09,North,-999,0.0,0.0,61,0.00,,,-99.99,FreeWX 2.05,2013-04-03 05:45:00,
2013-04-03 01:55:00,65.7,52.3,30.09,North,-999,0.0,0.0,62,0.00,,,-99.99,FreeWX 2.05,2013-04-03 05:55:00,
2013-04-03 02:05:00,65.5,52.2,30.06,North,-999,0.0,0.0,62,0.00,,,-99.99,FreeWX 2.05,2013-04-03 06:05:00,
2013-04-03 02:15:00,65.3,52.3,30.06,North,-999,0.0,0.0,63,0.00,,,-99.99,FreeWX 2.05,2013-04-03 06:15:00,
2013-04-03 02:25:00,65.3,52.9,30.06,North,-999,0.0,0.0,64,0.00,,,-99.99,FreeWX 2.05,2013-04-03 06:25:00,
2013-04-03 02:35:00,65.1,53.1,30.06,North,-999,0.0,0.0,65,0.00,,,-99.99,FreeWX 2.05,2013-04-03 06:35:00,
2013-04-03 02:45:00,65.1,53.4,30.06,North,-999,0.0,0.0,66,0.00,,,-99.99,FreeWX 2.05,2013-04-03 06:45:00,
2013-04-03 02:55:00,64.9,53.2,30.06,North,-999,0.0,0.0,66,0.00,,,-99.99,FreeWX 2.05,2013-04-03 06:55:00,
2013-04-03 03:05:00,64.8,53.6,30.03,North,-999,0.0,0.0,67,0.00,,,-99.99,FreeWX 2.05,2013-04-03 07:05:00,
2013-04-03 03:15:00,64.6,53.4,30.03,North,-999,0.0,0.0,67,0.00,,,-99.99,FreeWX 2.05,2013-04-03 07:15:00,
2013-04-03 03:25:00,64.6,53.8,30.03,North,-999,0.0,0.0,68,0.00,,,-99.99,FreeWX 2.05,2013-04-03 07:25:00,
2013-04-03 03:35:00,64.6,53.8,30.03,North,-999,0.0,0.0,68,0.00,,,-99.99,FreeWX 2.05,2013-04-03 07:35:00,
2013-04-03 03:45:00,64.6,54.1,30.03,North,-999,0.0,0.0,69,0.00,,,-99.99,FreeWX 2.05,2013-04-03 07:45:00,
2013-04-03 03:55:00,64.8,54.3,30.03,North,-999,0.0,0.0,69,0.00,,,-99.99,FreeWX 2.05,2013-04-03 07:55:00,
2013-04-03 04:05:00,64.9,54.9,30.03,North,-999,0.0,0.0,70,0.00,,,-99.99,FreeWX 2.05,2013-04-03 08:05:00,
2013-04-03 04:15:00,65.5,55.8,30.00,North,-999,0.0,2.7,71,0.00,,,-99.99,FreeWX 2.05,2013-04-03 08:15:00,
2013-04-03 04:25:00,66.2,56.5,30.00,North,-999,0.0,3.1,71,0.00,,,-99.99,FreeWX 2.05,2013-04-03 08:25:00,
2013-04-03 04:35:00,66.6,57.2,30.03,North,-999,0.0,3.1,72,0.00,,,-99.99,FreeWX 2.05,2013-04-03 08:35:00,
2013-04-03 04:45:00,66.7,57.7,30.03,North,-999,0.0,2.7,73,0.00,,,-99.99,FreeWX 2.05,2013-04-03 08:45:00,
2013-04-03 04:55:00,66.9,57.9,30.03,North,-999,0.0,3.1,73,0.00,,,-99.99,FreeWX 2.05,2013-04-03 08:55:00,
2013-04-03 05:05:00,66.9,58.3,30.03,North,-999,0.0,3.1,74,0.00,,,-99.99,FreeWX 2.05,2013-04-03 09:05:00,
2013-04-03 05:15:00,66.7,58.1,30.03,North,-999,0.0,2.7,74,0.00,,,-99.99,FreeWX 2.05,2013-04-03 09:15:00,
2013-04-03 05:25:00,66.7,58.6,30.03,North,-999,0.0,3.1,75,0.00,,,-99.99,FreeWX 2.05,2013-04-03 09:25:00,
2013-04-03 05:35:00,66.7,59.0,30.03,North,-999,0.0,0.0,76,0.00,,,-99.99,FreeWX 2.05,2013-04-03 09:35:00,
2013-04-03 05:45:00,66.6,58.8,30.03,North,-999,0.0,0.0,76,0.00,,,-99.99,FreeWX 2.05,2013-04-03 09:45:00,
2013-04-03 05:55:00,66.6,59.2,30.03,North,-999,0.0,4.0,77,0.00,,,-99.99,FreeWX 2.05,2013-04-03 09:55:00,
2013-04-03 06:05:00,66.6,59.5,30.00,WSW,256,1.0,4.0,78,0.00,,,-99.99,FreeWX 2.05,2013-04-03 10:05:00,
2013-04-03 06:15:00,66.6,59.5,30.00,North,-999,0.0,3.6,78,0.00,,,-99.99,FreeWX 2.05,2013-04-03 10:15:00,
2013-04-03 06:25:00,66.6,59.9,30.00,North,-999,0.0,3.1,79,0.00,,,-99.99,FreeWX 2.05,2013-04-03 10:25:00,
2013-04-03 06:35:00,66.7,60.4,30.03,West,264,1.0,3.6,80,0.00,,,-99.99,FreeWX 2.05,2013-04-03 10:35:00,
2013-04-03 06:45:00,66.7,60.4,30.03,WSW,258,1.0,4.5,80,0.00,,,-99.99,FreeWX 2.05,2013-04-03 10:45:00,
2013-04-03 06:55:00,66.7,60.8,30.03,WSW,258,1.0,4.0,81,0.00,,,-99.99,FreeWX 2.05,2013-04-03 10:55:00,
2013-04-03 07:05:00,66.7,61.0,30.03,West,260,1.0,4.0,82,0.00,,,-99.99,FreeWX 2.05,2013-04-03 11:05:00,
2013-04-03 07:15:00,66.7,61.0,30.03,North,-999,0.0,3.1,82,0.00,,,-99.99,FreeWX 2.05,2013-04-03 11:15:00,
2013-04-03 07:25:00,66.7,61.0,30.03,West,274,1.0,3.1,82,0.00,,,-99.99,FreeWX 2.05,2013-04-03 11:25:00,
2013-04-03 07:35:00,66.9,61.5,30.03,West,272,1.0,4.0,83,0.00,,,-99.99,FreeWX 2.05,2013-04-03 11:35:00,
2013-04-03 07:45:00,67.1,62.1,30.03,West,271,1.0,4.5,84,0.00,,,-99.99,FreeWX 2.05,2013-04-03 11:45:00,
2013-04-03 07:55:00,67.5,62.4,30.03,WSW,248,1.0,3.6,84,0.00,,,-99.99,FreeWX 2.05,2013-04-03 11:55:00,
2013-04-03 08:05:00,67.8,63.1,30.03,West,276,2.0,4.5,85,0.00,,,-99.99,FreeWX 2.05,2013-04-03 12:05:00,
2013-04-03 08:15:00,68.4,64.0,30.03,West,259,2.0,4.5,86,0.00,,,-99.99,FreeWX 2.05,2013-04-03 12:15:00,
2013-04-03 08:25:00,68.9,64.9,30.03,West,279,2.0,5.4,87,0.00,,,-99.99,FreeWX 2.05,2013-04-03 12:25:00,
2013-04-03 08:35:00,69.6,65.8,30.03,West,278,3.0,5.8,88,0.00,,,-99.99,FreeWX 2.05,2013-04-03 12:35:00,
2013-04-03 08:45:00,70.5,66.7,30.03,WNW,291,2.0,5.8,88,0.00,,,-99.99,FreeWX 2.05,2013-04-03 12:45:00,
2013-04-03 08:55:00,71.1,66.9,30.03,West,279,2.0,5.8,87,0.00,,,-99.99,FreeWX 2.05,2013-04-03 12:55:00,
2013-04-03 09:05:00,71.2,66.7,30.06,WNW,290,3.0,7.4,86,0.00,,,-99.99,FreeWX 2.05,2013-04-03 13:05:00,
2013-04-03 09:15:00,72.1,67.1,30.03,WNW,286,3.0,5.4,84,0.00,,,-99.99,FreeWX 2.05,2013-04-03 13:15:00,
2013-04-03 09:25:00,72.1,65.3,30.03,WNW,303,4.0,7.8,79,0.00,,,-99.99,FreeWX 2.05,2013-04-03 13:25:00,
2013-04-03 09:35:00,72.5,64.6,30.03,WNW,287,3.0,7.4,76,0.00,,,-99.99,FreeWX 2.05,2013-04-03 13:35:00,
2013-04-03 09:45:00,72.9,62.4,30.03,WNW,285,3.0,7.8,70,0.00,,,-99.99,FreeWX 2.05,2013-04-03 13:45:00,
2013-04-03 09:55:00,73.9,63.5,30.03,NW,310,1.0,5.8,70,0.00,,,-99.99,FreeWX 2.05,2013-04-03 13:55:00,
2013-04-03 10:05:00,73.4,61.0,30.03,NNW,331,4.0,11.2,65,0.00,,,-99.99,FreeWX 2.05,2013-04-03 14:05:00,
2013-04-03 10:15:00,74.3,61.3,30.03,NW,313,3.0,10.1,64,0.00,,,-99.99,FreeWX 2.05,2013-04-03 14:15:00,
2013-04-03 10:25:00,74.8,61.0,30.03,NW,313,3.0,6.3,62,0.00,,,-99.99,FreeWX 2.05,2013-04-03 14:25:00,
2013-04-03 10:35:00,75.2,59.4,30.03,NW,317,4.0,10.1,58,0.00,,,-99.99,FreeWX 2.05,2013-04-03 14:35:00,
2013-04-03 10:45:00,75.7,58.5,30.03,NNW,343,4.0,8.7,55,0.00,,,-99.99,FreeWX 2.05,2013-04-03 14:45:00,
2013-04-03 10:55:00,76.3,57.9,30.03,NNW,332,4.0,7.8,53,0.00,,,-99.99,FreeWX 2.05,2013-04-03 14:55:00,
2013-04-03 11:05:00,76.8,57.4,30.03,NNW,330,4.0,8.3,51,0.00,,,-99.99,FreeWX 2.05,2013-04-03 15:05:00,
2013-04-03 11:15:00,77.5,55.8,30.03,NNW,338,4.0,7.4,47,0.00,,,-99.99,FreeWX 2.05,2013-04-03 15:15:00,
2013-04-03 11:25:00,77.4,52.5,30.03,NNW,343,4.0,9.2,42,0.00,,,-99.99,FreeWX 2.05,2013-04-03 15:25:00,
2013-04-03 11:35:00,77.2,51.6,30.03,NW,308,4.0,9.2,41,0.00,,,-99.99,FreeWX 2.05,2013-04-03 15:35:00,
2013-04-03 11:45:00,77.7,52.2,30.03,NNW,329,4.0,6.9,41,0.00,,,-99.99,FreeWX 2.05,2013-04-03 15:45:00,
2013-04-03 11:55:00,78.3,52.0,30.03,NNW,333,4.0,8.7,40,0.00,,,-99.99,FreeWX 2.05,2013-04-03 15:55:00,
2013-04-03 12:05:00,78.8,51.1,30.03,NNW,332,4.0,8.3,38,0.00,,,-99.99,FreeWX 2.05,2013-04-03 16:05:00,
2013-04-03 12:15:00,79.3,50.0,30.03,North,352,5.0,8.7,36,0.00,,,-99.99,FreeWX 2.05,2013-04-03 16:15:00,
2013-04-03 12:25:00,80.1,49.1,30.03,NNW,342,4.0,7.8,34,0.00,,,-99.99,FreeWX 2.05,2013-04-03 16:25:00,
2013-04-03 12:35:00,80.8,48.9,30.00,North,350,4.0,10.5,33,0.00,,,-99.99,FreeWX 2.05,2013-04-03 16:35:00,
2013-04-03 12:45:00,81.3,48.6,30.00,WNW,302,4.0,8.7,32,0.00,,,-99.99,FreeWX 2.05,2013-04-03 16:45:00,
2013-04-03 12:55:00,82.0,48.4,30.00,NNW,335,4.0,8.7,31,0.00,,,-99.99,FreeWX 2.05,2013-04-03 16:55:00,
2013-04-03 13:05:00,82.6,48.0,30.00,WNW,301,4.0,6.9,30,0.00,,,-99.99,FreeWX 2.05,2013-04-03 17:05:00,
2013-04-03 13:15:00,82.6,47.1,30.00,West,279,4.0,7.8,29,0.00,,,-99.99,FreeWX 2.05,2013-04-03 17:15:00,
2013-04-03 13:25:00,82.9,47.3,30.00,NNE,20,5.0,11.0,29,0.00,,,-99.99,FreeWX 2.05,2013-04-03 17:25:00,
2013-04-03 13:36:00,82.9,47.3,30.00,NNE,31,5.0,9.6,29,0.00,,,-99.99,FreeWX 2.05,2013-04-03 17:36:00,
2013-04-03 13:46:00,82.9,48.2,30.00,NE,39,4.0,7.8,30,0.00,,,-99.99,FreeWX 2.05,2013-04-03 17:46:00,
2013-04-03 13:56:00,83.1,48.4,30.00,NE,39,4.0,8.3,30,0.00,,,-99.99,FreeWX 2.05,2013-04-03 17:56:00,
2013-04-03 14:06:00,83.5,47.8,30.00,NNE,24,4.0,7.4,29,0.00,,,-99.99,FreeWX 2.05,2013-04-03 18:06:00,
2013-04-03 14:16:00,83.7,48.0,30.03,NE,37,5.0,8.7,29,0.00,,,-99.99,FreeWX 2.05,2013-04-03 18:16:00,
2013-04-03 14:26:00,83.7,48.0,30.03,NE,42,5.0,9.6,29,0.00,,,-99.99,FreeWX 2.05,2013-04-03 18:26:00,
2013-04-03 14:36:00,83.1,47.5,30.00,NNE,33,6.0,9.2,29,0.00,,,-99.99,FreeWX 2.05,2013-04-03 18:36:00,
2013-04-03 14:46:00,81.9,43.5,30.00,NE,35,6.0,10.5,26,0.00,,,-99.99,FreeWX 2.05,2013-04-03 18:46:00,
2013-04-03 14:56:00,81.7,43.5,30.00,NNE,33,5.0,10.5,26,0.00,,,-99.99,FreeWX 2.05,2013-04-03 18:56:00,
2013-04-03 15:06:00,81.5,42.3,30.00,NNE,30,5.0,8.7,25,0.00,,,-99.99,FreeWX 2.05,2013-04-03 19:06:00,
2013-04-03 15:26:00,81.1,40.8,30.00,NE,35,5.0,8.7,24,0.00,,,-99.99,FreeWX 2.05,2013-04-03 19:26:00,
2013-04-03 15:36:00,81.1,40.8,30.00,NE,35,5.0,9.6,24,0.00,,,-99.99,FreeWX 2.05,2013-04-03 19:36:00,
2013-04-03 15:46:00,80.6,40.5,30.00,NE,35,6.0,12.1,24,0.00,,,-99.99,FreeWX 2.05,2013-04-03 19:46:00,
2013-04-03 15:56:00,79.7,40.8,30.00,NE,40,6.0,11.2,25,0.00,,,-99.99,FreeWX 2.05,2013-04-03 19:56:00,
2013-04-03 16:06:00,79.2,40.3,30.00,NE,34,6.0,12.1,25,0.00,,,-99.99,FreeWX 2.05,2013-04-03 20:06:00,
2013-04-03 16:16:00,79.0,41.2,30.00,NNE,30,5.0,9.2,26,0.00,,,-99.99,FreeWX 2.05,2013-04-03 20:16:00,
2013-04-03 16:26:00,78.6,43.7,30.00,NNE,22,5.0,9.6,29,0.00,,,-99.99,FreeWX 2.05,2013-04-03 20:26:00,
2013-04-03 16:36:00,78.4,45.3,30.00,NNE,25,5.0,10.1,31,0.00,,,-99.99,FreeWX 2.05,2013-04-03 20:36:00,
2013-04-03 16:46:00,77.9,44.8,30.00,NNE,22,4.0,7.8,31,0.00,,,-99.99,FreeWX 2.05,2013-04-03 20:46:00,
2013-04-03 17:07:00,77.2,45.9,30.00,NNE,33,5.0,10.1,33,0.00,,,-99.99,FreeWX 2.05,2013-04-03 21:07:00,
2013-04-03 17:17:00,77.0,45.7,30.00,NNE,24,4.0,8.3,33,0.00,,,-99.99,FreeWX 2.05,2013-04-03 21:17:00,
2013-04-03 17:27:00,77.0,46.4,30.00,North,8,3.0,5.4,34,0.00,,,-99.99,FreeWX 2.05,2013-04-03 21:27:00,
2013-04-03 17:37:00,77.0,46.4,29.97,NNE,33,3.0,8.7,34,0.00,,,-99.99,FreeWX 2.05,2013-04-03 21:37:00,
2013-04-03 17:47:00,76.6,46.2,29.97,NNE,29,5.0,10.1,34,0.00,,,-99.99,FreeWX 2.05,2013-04-03 21:47:00,
2013-04-03 17:57:00,76.5,46.8,29.97,NNE,25,5.0,11.0,35,0.00,,,-99.99,FreeWX 2.05,2013-04-03 21:57:00,
2013-04-03 18:07:00,76.3,47.3,29.97,NE,36,4.0,10.1,36,0.00,,,-99.99,FreeWX 2.05,2013-04-03 22:07:00,
2013-04-03 18:17:00,76.1,47.8,29.97,NE,45,4.0,7.4,37,0.00,,,-99.99,FreeWX 2.05,2013-04-03 22:17:00,
2013-04-03 18:27:00,76.1,48.6,29.97,NE,37,3.0,8.3,38,0.00,,,-99.99,FreeWX 2.05,2013-04-03 22:27:00,
2013-04-03 18:37:00,76.1,49.3,29.97,NE,42,5.0,10.5,39,0.00,,,-99.99,FreeWX 2.05,2013-04-03 22:37:00,
2013-04-03 18:47:00,76.1,49.3,29.97,NE,42,4.0,8.7,39,0.00,,,-99.99,FreeWX 2.05,2013-04-03 22:47:00,
2013-04-03 18:57:00,75.9,49.8,29.97,NE,38,4.0,10.1,40,0.00,,,-99.99,FreeWX 2.05,2013-04-03 22:57:00,
2013-04-03 19:07:00,75.7,50.4,29.97,NNE,19,4.0,8.3,41,0.00,,,-99.99,FreeWX 2.05,2013-04-03 23:07:00,
2013-04-03 19:17:00,75.6,50.9,29.97,NNE,31,4.0,9.6,42,0.00,,,-99.99,FreeWX 2.05,2013-04-03 23:17:00,
2013-04-03 19:37:00,75.0,50.9,29.97,NNE,27,4.0,8.7,43,0.00,,,-99.99,FreeWX 2.05,2013-04-03 23:37:00,
2013-04-03 19:47:00,74.8,51.4,29.97,NNE,33,2.0,9.2,44,0.00,,,-99.99,FreeWX 2.05,2013-04-03 23:47:00,
2013-04-03 19:57:00,74.7,51.3,29.97,NNE,12,1.0,9.6,44,0.00,,,-99.99,FreeWX 2.05,2013-04-03 23:57:00,
2013-04-03 20:07:00,74.7,51.3,29.97,NNE,29,1.0,6.3,44,0.00,,,-99.99,FreeWX 2.05,2013-04-04 00:07:00,
2013-04-03 20:17:00,74.7,52.0,29.97,NNE,20,2.0,7.8,45,0.00,,,-99.99,FreeWX 2.05,2013-04-04 00:17:00,
2013-04-03 20:27:00,74.8,52.7,29.97,NE,36,3.0,6.9,46,0.00,,,-99.99,FreeWX 2.05,2013-04-04 00:27:00,
2013-04-03 20:37:00,74.8,53.8,30.00,NE,38,5.0,9.2,48,0.00,,,-99.99,FreeWX 2.05,2013-04-04 00:37:00,
2013-04-03 20:47:00,73.2,52.9,30.00,NNE,30,4.0,11.2,49,0.00,,,-99.99,FreeWX 2.05,2013-04-04 00:47:00,
2013-04-03 20:57:00,73.0,53.8,30.00,NE,35,2.0,6.9,51,0.00,,,-99.99,FreeWX 2.05,2013-04-04 00:57:00,
2013-04-03 21:07:00,72.9,54.7,30.03,NE,35,3.0,7.8,53,0.00,,,-99.99,FreeWX 2.05,2013-04-04 01:07:00,
2013-04-03 21:17:00,72.7,55.6,30.03,NE,41,2.0,5.4,55,0.00,,,-99.99,FreeWX 2.05,2013-04-04 01:17:00,
2013-04-03 21:27:00,72.5,56.3,30.03,North,8,1.0,5.4,57,0.00,,,-99.99,FreeWX 2.05,2013-04-04 01:27:00,
2013-04-03 21:37:00,72.5,57.4,30.00,North,-999,0.0,2.7,59,0.00,,,-99.99,FreeWX 2.05,2013-04-04 01:37:00,
2013-04-03 21:47:00,72.3,57.6,30.03,North,-999,0.0,3.6,60,0.00,,,-99.99,FreeWX 2.05,2013-04-04 01:47:00,
2013-04-03 21:57:00,72.3,58.1,30.03,North,-999,0.0,3.6,61,0.00,,,-99.99,FreeWX 2.05,2013-04-04 01:57:00,
2013-04-03 22:07:00,72.1,59.7,30.06,North,-999,0.0,0.0,65,0.00,,,-99.99,FreeWX 2.05,2013-04-04 02:07:00,
2013-04-03 22:17:00,72.0,61.2,30.03,North,-999,0.0,3.6,69,0.00,,,-99.99,FreeWX 2.05,2013-04-04 02:17:00,
2013-04-03 22:27:00,71.6,61.7,30.03,West,261,1.0,4.0,71,0.00,,,-99.99,FreeWX 2.05,2013-04-04 02:27:00,
2013-04-03 22:37:00,71.8,62.6,30.03,North,-999,0.0,4.5,73,0.00,,,-99.99,FreeWX 2.05,2013-04-04 02:37:00,
2013-04-03 22:47:00,71.6,62.8,30.03,North,-999,0.0,4.5,74,0.00,,,-99.99,FreeWX 2.05,2013-04-04 02:47:00,
2013-04-03 22:57:00,71.6,63.3,30.03,West,280,1.0,3.6,75,0.00,,,-99.99,FreeWX 2.05,2013-04-04 02:57:00,
2013-04-03 23:07:00,71.6,63.7,30.03,WSW,257,2.0,4.0,76,0.00,,,-99.99,FreeWX 2.05,2013-04-04 03:07:00,
2013-04-03 23:17:00,71.6,64.0,30.00,WNW,286,3.0,4.5,77,0.00,,,-99.99,FreeWX 2.05,2013-04-04 03:17:00,
2013-04-03 23:27:00,71.2,64.4,30.00,West,259,2.0,5.4,79,0.00,,,-99.99,FreeWX 2.05,2013-04-04 03:27:00,
2013-04-03 23:37:00,71.1,64.2,30.00,NE,48,1.0,4.5,79,0.00,,,-99.99,FreeWX 2.05,2013-04-04 03:37:00,
2013-04-03 23:47:00,70.9,64.4,30.03,West,268,1.0,4.0,80,0.00,,,-99.99,FreeWX 2.05,2013-04-04 03:47:00,
2013-04-03 23:57:00,70.7,64.2,30.03,WNW,297,3.0,5.8,80,0.00,,,-99.99,FreeWX 2.05,2013-04-04 03:57:00,